createdAt,value
2022-11-15T00:00:39.162Z,7.73
2022-11-15T00:03:07.105Z,8.30
2022-11-15T00:05:36.807Z,7.00
2022-11-15T00:08:05.147Z,6.77
2022-11-15T00:10:33.156Z,7.60
2022-11-15T00:13:02.538Z,5.63
2022-11-15T00:15:30.515Z,7.93
2022-11-15T00:17:58.341Z,6.47
2022-11-15T00:20:26.227Z,6.90
2022-11-15T00:22:54.078Z,5.60
2022-11-15T00:25:21.892Z,7.53
2022-11-15T00:27:49.807Z,7.17
2022-11-15T00:30:19.393Z,7.07
2022-11-15T00:32:47.260Z,7.77
2022-11-15T00:35:15.136Z,8.20
2022-11-15T00:37:42.931Z,7.07
2022-11-15T00:40:13.818Z,6.07
2022-11-15T00:42:45.385Z,7.03
2022-11-15T00:45:13.344Z,7.90
2022-11-15T00:47:42.645Z,7.87
2022-11-15T00:50:14.866Z,7.50
2022-11-15T00:52:43.280Z,6.57
2022-11-15T00:55:11.550Z,6.93
2022-11-15T00:57:39.375Z,6.40
2022-11-15T01:00:08.681Z,7.57
2022-11-15T01:02:36.620Z,7.33
2022-11-15T01:05:06.576Z,7.03
2022-11-15T01:07:34.623Z,6.47
2022-11-15T01:10:02.690Z,7.67
2022-11-15T01:12:30.621Z,6.10
2022-11-15T01:14:58.615Z,7.00
2022-11-15T01:17:26.504Z,7.40
2022-11-15T01:19:54.292Z,7.17
2022-11-15T01:22:23.555Z,6.30
2022-11-15T01:24:51.765Z,6.70
2022-11-15T01:27:19.743Z,7.33
2022-11-15T01:29:47.511Z,6.83
2022-11-15T01:32:15.363Z,7.60
2022-11-15T01:34:43.195Z,6.77
2022-11-15T01:37:11.254Z,6.77
2022-11-15T01:39:43.903Z,6.57
2022-11-15T01:42:14.249Z,6.47
2022-11-15T01:44:44.397Z,6.83
2022-11-15T01:47:17.188Z,7.23
2022-11-15T01:49:50.896Z,7.10
2022-11-15T01:52:20.292Z,7.17
2022-11-15T01:54:49.528Z,7.23
2022-11-15T01:57:17.665Z,7.23
2022-11-15T01:59:45.683Z,7.83
2022-11-15T02:02:14.684Z,6.97
2022-11-15T02:04:43.528Z,6.33
2022-11-15T02:07:12.625Z,5.73
2022-11-15T02:09:40.604Z,6.57
2022-11-15T02:12:10.364Z,6.90
2022-11-15T02:14:38.516Z,5.13
2022-11-15T02:17:13.135Z,7.00
2022-11-15T02:20:11.888Z,5.70
2022-11-15T02:22:43.336Z,6.57
2022-11-15T02:25:26.823Z,7.60
2022-11-15T02:28:21.696Z,6.87
2022-11-15T02:30:54.205Z,7.37
2022-11-15T02:33:29.808Z,6.77
2022-11-15T02:36:00.547Z,7.60
2022-11-15T02:38:33.334Z,7.80
2022-11-15T02:41:02.495Z,7.13
2022-11-15T02:43:49.209Z,7.83
2022-11-15T02:46:21.214Z,8.70
2022-11-15T02:48:49.171Z,7.53
2022-11-15T02:51:17.126Z,7.67
2022-11-15T02:53:45.035Z,7.40
2022-11-15T02:56:12.958Z,7.23
2022-11-15T02:58:51.492Z,7.60
2022-11-15T03:01:26.001Z,7.87
2022-11-15T03:04:00.408Z,7.27
2022-11-15T03:06:31.960Z,6.90
2022-11-15T03:09:05.294Z,6.53
2022-11-15T03:11:34.977Z,6.73
2022-11-15T03:14:04.938Z,6.40
2022-11-15T03:16:36.643Z,7.30
2022-11-15T03:19:06.659Z,7.17
2022-11-15T03:21:34.730Z,6.70
2022-11-15T03:24:05.102Z,6.20
2022-11-15T03:29:12.593Z,6.60
2022-11-15T03:31:51.525Z,6.40
2022-11-15T03:34:23.629Z,6.00
2022-11-15T03:36:52.373Z,6.97
2022-11-15T03:39:20.841Z,6.60
2022-11-15T03:41:50.484Z,6.20
2022-11-15T03:44:21.469Z,6.43
2022-11-15T03:46:53.817Z,6.10
2022-11-15T03:49:25.028Z,6.67
2022-11-15T03:51:52.945Z,6.27
2022-11-15T03:54:20.664Z,5.37
2022-11-15T03:56:48.396Z,6.00
2022-11-15T03:59:16.371Z,6.27
2022-11-15T04:01:44.122Z,6.50
2022-11-15T04:04:13.264Z,7.33
2022-11-15T04:06:43.720Z,5.90
2022-11-15T04:09:12.848Z,5.23
2022-11-15T04:11:40.763Z,6.07
2022-11-15T04:14:08.411Z,6.23
2022-11-15T04:16:40.955Z,6.07
2022-11-15T04:19:28.813Z,6.17
2022-11-15T04:22:20.997Z,6.67
2022-11-15T04:24:48.690Z,5.97
2022-11-15T04:27:16.460Z,6.03
2022-11-15T04:29:44.111Z,7.33
2022-11-15T04:32:12.142Z,6.80
2022-11-15T04:34:40.409Z,5.70
2022-11-15T04:37:15.134Z,6.53
2022-11-15T04:39:43.325Z,6.93
2022-11-15T04:42:11.275Z,6.23
2022-11-15T04:44:39.624Z,6.87
2022-11-15T04:47:07.796Z,6.37
2022-11-15T04:49:35.641Z,7.00
2022-11-15T04:52:03.596Z,7.20
2022-11-15T04:54:33.050Z,6.93
2022-11-15T04:57:01.074Z,7.37
2022-11-15T04:59:29.140Z,7.00
2022-11-15T05:01:56.891Z,6.67
2022-11-15T05:04:23.678Z,6.47
2022-11-15T05:06:51.798Z,7.17
2022-11-15T05:09:19.920Z,7.37
2022-11-15T05:11:50.836Z,6.77
2022-11-15T05:14:18.603Z,7.50
2022-11-15T05:16:46.388Z,6.30
2022-11-15T05:19:14.075Z,6.37
2022-11-15T05:21:42.019Z,6.23
2022-11-15T05:24:11.955Z,5.83
2022-11-15T05:26:42.617Z,7.10
2022-11-15T05:29:13.311Z,6.20
2022-11-15T05:31:42.877Z,6.60
2022-11-15T05:34:10.706Z,7.03
2022-11-15T05:36:41.306Z,6.67
2022-11-15T05:39:10.242Z,5.83
2022-11-15T05:41:39.270Z,5.03
2022-11-15T05:44:07.748Z,6.00
2022-11-15T05:46:36.918Z,5.40
2022-11-15T05:49:04.590Z,4.93
2022-11-15T05:51:32.400Z,5.00
2022-11-15T05:54:00.336Z,5.20
2022-11-15T05:56:28.314Z,5.03
2022-11-15T05:59:15.182Z,5.27
2022-11-15T06:01:46.036Z,5.20
2022-11-15T06:04:14.421Z,4.60
2022-11-15T06:14:43.574Z,4.57
2022-11-15T06:17:34.235Z,4.37
2022-11-15T06:20:26.970Z,4.07
2022-11-15T06:23:06.832Z,3.83
2022-11-15T06:25:49.457Z,4.07
2022-11-15T06:32:14.125Z,4.40
2022-11-15T06:38:53.404Z,3.47
2022-11-15T06:41:24.760Z,3.93
2022-11-15T06:44:15.771Z,3.10
2022-11-15T06:47:00.313Z,3.20
2022-11-15T06:50:30.223Z,2.93
2022-11-15T06:53:14.965Z,3.53
2022-11-15T07:00:05.726Z,3.20
2022-11-15T07:02:34.020Z,3.03
2022-11-15T07:05:02.195Z,2.93
2022-11-15T07:07:37.519Z,3.20
2022-11-15T07:10:13.982Z,5.73
2022-11-15T07:12:44.573Z,2.50
2022-11-15T07:15:12.363Z,2.87
2022-11-15T07:17:40.263Z,2.70
2022-11-15T07:20:13.289Z,2.50
2022-11-15T07:22:41.169Z,2.63
2022-11-15T07:25:11.775Z,2.73
2022-11-15T07:27:39.723Z,2.37
2022-11-15T07:30:08.562Z,2.90
2022-11-15T07:32:36.955Z,2.57
2022-11-15T07:35:05.025Z,2.20
2022-11-15T07:37:32.860Z,4.27
2022-11-15T07:40:00.522Z,5.23
2022-11-15T07:42:48.507Z,2.30
2022-11-15T07:45:16.523Z,2.10
2022-11-15T07:47:47.402Z,2.00
2022-11-15T07:50:15.303Z,2.07
2022-11-15T07:52:43.250Z,1.83
2022-11-15T07:55:11.058Z,2.00
2022-11-15T07:57:50.939Z,2.00
2022-11-15T08:00:19.765Z,2.27
2022-11-15T08:02:47.799Z,2.40
2022-11-15T08:05:15.996Z,2.03
2022-11-15T08:07:43.751Z,2.10
2022-11-15T08:10:13.695Z,2.10
2022-11-15T08:13:06.751Z,2.30
2022-11-15T08:16:27.488Z,2.50
2022-11-15T08:18:55.496Z,2.33
2022-11-15T08:21:29.080Z,2.10
2022-11-15T08:24:01.268Z,1.80
2022-11-15T08:26:31.399Z,1.90
2022-11-15T08:29:01.703Z,2.57
2022-11-15T08:31:31.510Z,1.83
2022-11-15T08:34:03.635Z,1.90
2022-11-15T08:36:37.018Z,2.10
2022-11-15T08:39:14.950Z,1.83
2022-11-15T08:41:42.852Z,1.90
2022-11-15T08:44:15.322Z,1.80
2022-11-15T08:46:43.241Z,1.93
2022-11-15T08:49:15.375Z,1.97
2022-11-15T08:51:43.230Z,2.20
2022-11-15T08:54:12.284Z,1.77
2022-11-15T08:56:40.269Z,1.73
2022-11-15T08:59:08.459Z,2.03
2022-11-15T09:01:37.816Z,1.90
2022-11-15T09:04:06.216Z,1.73
2022-11-15T09:06:34.498Z,2.03
2022-11-15T09:09:02.718Z,1.50
2022-11-15T09:11:30.578Z,1.57
2022-11-15T09:13:59.283Z,1.47
2022-11-15T09:16:27.076Z,1.47
2022-11-15T09:18:56.248Z,1.60
2022-11-15T09:21:24.047Z,1.40
2022-11-15T09:23:52.890Z,1.63
2022-11-15T09:26:20.784Z,1.33
2022-11-15T09:28:48.576Z,1.50
2022-11-15T09:31:21.025Z,1.43
2022-11-15T09:33:51.214Z,1.60
2022-11-15T09:36:20.723Z,1.30
2022-11-15T09:38:48.760Z,1.23
2022-11-15T09:41:38.397Z,1.30
2022-11-15T09:44:13.685Z,1.00
2022-11-15T09:46:46.391Z,1.40
2022-11-15T09:49:15.607Z,1.10
2022-11-15T09:51:48.599Z,1.20
2022-11-15T09:54:52.614Z,1.73
2022-11-15T09:57:16.054Z,1.23
2022-11-15T09:59:54.711Z,1.20
2022-11-15T10:02:35.388Z,1.10
2022-11-15T10:05:03.292Z,1.00
2022-11-15T10:07:42.815Z,0.90
2022-11-15T10:10:13.837Z,0.90
2022-11-15T10:12:41.673Z,1.00
2022-11-15T10:15:15.134Z,0.90
2022-11-15T10:17:59.317Z,1.10
2022-11-15T10:20:28.523Z,0.90
2022-11-15T10:23:00.908Z,1.08
2022-11-15T10:25:29.324Z,1.05
2022-11-15T10:27:59.261Z,1.50
2022-11-15T10:30:33.656Z,1.25
2022-11-15T10:33:01.984Z,0.98
2022-11-15T10:35:34.326Z,1.10
2022-11-15T10:38:10.984Z,1.08
2022-11-15T10:40:39.789Z,1.13
2022-11-15T10:43:18.381Z,1.00
2022-11-15T10:45:46.477Z,0.80
2022-11-15T10:48:23.507Z,0.90
2022-11-15T10:50:52.253Z,1.10
2022-11-15T10:53:24.849Z,1.17
2022-11-15T10:55:54.932Z,0.85
2022-11-15T10:58:24.995Z,0.80
2022-11-15T11:00:56.191Z,0.70
2022-11-15T11:03:30.622Z,1.00
2022-11-15T11:06:09.618Z,1.33
2022-11-15T11:08:39.255Z,0.90
2022-11-15T11:11:08.175Z,1.00
2022-11-15T11:13:37.475Z,0.85
2022-11-15T11:16:28.891Z,1.20
2022-11-15T11:19:00.237Z,0.80
2022-11-15T11:21:38.400Z,0.93
2022-11-15T11:24:12.585Z,0.90
2022-11-15T11:26:44.722Z,0.82
2022-11-15T11:29:26.173Z,1.10
2022-11-15T11:31:58.303Z,4.70
2022-11-15T11:34:36.236Z,1.02
2022-11-15T11:37:11.924Z,0.90
2022-11-15T11:39:46.075Z,1.30
2022-11-15T11:42:18.346Z,1.05
2022-11-15T11:44:51.598Z,0.70
2022-11-15T11:47:22.732Z,0.90
2022-11-15T11:49:53.269Z,0.73
2022-11-15T11:52:24.586Z,0.70
2022-11-15T11:54:58.974Z,0.68
2022-11-15T11:57:31.685Z,0.80
2022-11-15T12:00:03.208Z,0.80
2022-11-15T12:02:33.331Z,0.70
2022-11-15T12:05:06.400Z,0.93
2022-11-15T12:07:36.159Z,0.70
2022-11-15T12:10:07.793Z,1.00
2022-11-15T12:12:38.686Z,0.80
2022-11-15T12:15:12.727Z,0.77
2022-11-15T12:17:41.059Z,0.70
2022-11-15T12:20:17.376Z,1.10
2022-11-15T12:22:46.085Z,0.90
2022-11-15T12:25:19.451Z,0.90
2022-11-15T12:27:48.870Z,0.90
2022-11-15T12:30:17.770Z,1.13
2022-11-15T12:32:54.111Z,1.13
2022-11-15T12:35:30.692Z,1.00
2022-11-15T12:37:59.097Z,0.60
2022-11-15T12:40:36.441Z,0.60
2022-11-15T12:43:07.387Z,0.80
2022-11-15T12:45:36.368Z,0.70
2022-11-15T12:48:41.923Z,0.60
2022-11-15T12:51:10.509Z,1.02
2022-11-15T12:53:39.823Z,0.93
2022-11-15T12:56:23.716Z,0.80
2022-11-15T12:58:54.869Z,3.23
2022-11-15T13:01:56.135Z,1.10
2022-11-15T13:04:27.280Z,0.80
2022-11-15T13:06:57.124Z,0.70
2022-11-15T13:09:58.658Z,0.67
2022-11-15T13:12:54.520Z,0.80
2022-11-15T13:15:59.278Z,1.37
2022-11-15T13:18:39.640Z,0.70
2022-11-15T13:21:42.277Z,1.03
2022-11-15T13:24:15.891Z,0.83
2022-11-15T13:26:44.263Z,0.70
2022-11-15T13:29:19.956Z,0.80
2022-11-15T13:31:48.985Z,0.80
2022-11-15T13:34:50.120Z,1.00
2022-11-15T13:37:14.425Z,0.90
2022-11-15T13:39:42.783Z,0.80
2022-11-15T13:42:16.003Z,0.70
2022-11-15T13:44:56.870Z,0.93
2022-11-15T13:47:25.012Z,1.10
2022-11-15T13:49:52.969Z,0.73
2022-11-15T13:52:22.608Z,1.00
2022-11-15T13:54:54.874Z,0.90
2022-11-15T13:57:24.181Z,1.03
2022-11-15T13:59:54.561Z,1.10
2022-11-15T14:02:24.577Z,1.17
2022-11-15T14:04:53.957Z,1.17
2022-11-15T14:07:27.765Z,1.30
2022-11-15T14:09:59.044Z,1.20
2022-11-15T14:12:30.194Z,1.60
2022-11-15T14:15:00.210Z,1.67
2022-11-15T14:17:45.747Z,1.50
2022-11-15T14:20:29.478Z,1.60
2022-11-15T14:22:57.833Z,1.80
2022-11-15T14:25:26.399Z,1.50
2022-11-15T14:28:12.297Z,2.10
2022-11-15T14:30:42.224Z,1.80
2022-11-15T14:33:24.648Z,1.63
2022-11-15T14:35:52.928Z,1.70
2022-11-15T14:38:21.156Z,1.70
2022-11-15T14:40:48.929Z,2.27
2022-11-15T14:43:16.872Z,1.43
2022-11-15T14:45:46.682Z,1.30
2022-11-15T14:48:15.098Z,1.60
2022-11-15T14:50:43.271Z,1.33
2022-11-15T14:53:15.541Z,1.70
2022-11-15T14:55:43.781Z,1.87
2022-11-15T14:58:12.226Z,2.03
2022-11-15T15:00:40.932Z,1.90
2022-11-15T15:03:10.417Z,1.60
2022-11-15T15:05:39.544Z,1.70
2022-11-15T15:08:07.643Z,1.90
2022-11-15T15:10:40.557Z,2.10
2022-11-15T15:13:15.051Z,1.70
2022-11-15T15:15:43.450Z,1.50
2022-11-15T15:18:12.875Z,1.70
2022-11-15T15:20:41.671Z,2.10
2022-11-15T15:23:13.523Z,1.93
2022-11-15T15:25:43.125Z,1.80
2022-11-15T15:28:15.472Z,1.60
2022-11-15T15:30:46.231Z,1.80
2022-11-15T15:33:18.337Z,1.87
2022-11-15T15:35:46.227Z,1.60
2022-11-15T15:38:14.412Z,1.50
2022-11-15T15:40:42.492Z,2.10
2022-11-15T15:43:10.510Z,1.70
2022-11-15T15:45:38.961Z,1.60
2022-11-15T15:48:08.174Z,1.90
2022-11-15T15:50:37.897Z,1.80
2022-11-15T15:53:06.138Z,1.60
2022-11-15T15:55:34.078Z,1.80
2022-11-15T15:58:02.212Z,1.53
2022-11-15T16:00:30.246Z,1.50
2022-11-15T16:02:59.566Z,1.80
2022-11-15T16:05:27.684Z,1.43
2022-11-15T16:07:57.297Z,1.70
2022-11-15T16:10:26.935Z,1.60
2022-11-15T16:12:55.423Z,1.67
2022-11-15T16:15:24.758Z,1.53
2022-11-15T16:17:53.362Z,1.80
2022-11-15T16:20:30.691Z,1.50
2022-11-15T16:23:05.807Z,1.97
2022-11-15T16:25:42.616Z,2.03
2022-11-15T16:28:19.207Z,2.07
2022-11-15T16:30:49.901Z,1.67
2022-11-15T16:33:21.251Z,2.23
2022-11-15T16:35:49.915Z,1.60
2022-11-15T16:38:20.486Z,1.60
2022-11-15T16:40:48.973Z,2.10
2022-11-15T16:43:17.208Z,1.97
2022-11-15T16:45:44.998Z,1.40
2022-11-15T16:48:21.413Z,1.60
2022-11-15T16:50:49.501Z,1.70
2022-11-15T16:53:17.371Z,1.70
2022-11-15T16:55:46.555Z,2.90
2022-11-15T16:58:14.313Z,1.83
2022-11-15T17:00:42.073Z,1.93
2022-11-15T17:03:09.967Z,1.70
2022-11-15T17:05:37.652Z,2.10
2022-11-15T17:08:10.044Z,1.60
2022-11-15T17:10:39.971Z,2.87
2022-11-15T17:13:10.042Z,1.77
2022-11-15T17:15:37.790Z,2.20
2022-11-15T17:18:06.563Z,2.00
2022-11-15T17:20:34.350Z,1.97
2022-11-15T17:23:02.112Z,2.07
2022-11-15T17:25:29.815Z,1.87
2022-11-15T17:27:58.270Z,1.70
2022-11-15T17:30:28.432Z,2.17
2022-11-15T17:32:57.351Z,1.40
2022-11-15T17:35:26.935Z,1.57
2022-11-15T17:37:55.863Z,2.17
2022-11-15T17:40:24.592Z,1.93
2022-11-15T17:42:57.648Z,1.80
2022-11-15T17:45:27.643Z,1.90
2022-11-15T17:55:35.038Z,2.10
2022-11-15T18:06:06.705Z,2.20
2022-11-15T18:24:48.695Z,2.13
2022-11-15T18:27:27.470Z,2.50
2022-11-15T18:30:47.008Z,1.97
2022-11-15T18:51:59.308Z,2.70
2022-11-15T19:19:57.116Z,3.13
2022-11-15T19:26:57.324Z,2.93
2022-11-15T19:30:24.230Z,2.80
2022-11-15T20:48:12.677Z,3.73
2022-11-15T22:30:46.123Z,3.50
2022-11-15T22:33:16.099Z,3.00
2022-11-15T22:35:44.525Z,3.40
2022-11-15T22:38:12.875Z,3.57
2022-11-15T22:40:41.515Z,3.50
2022-11-15T22:43:09.785Z,3.93
2022-11-15T22:45:37.845Z,3.60
2022-11-15T22:48:05.984Z,3.70
2022-11-15T22:50:35.385Z,4.27
2022-11-15T22:53:03.358Z,3.87
2022-11-15T22:55:31.355Z,4.17
2022-11-15T22:57:59.347Z,4.67
2022-11-15T23:00:27.306Z,4.20
2022-11-15T23:02:55.897Z,3.87
2022-11-15T23:05:25.717Z,4.40
2022-11-15T23:07:55.285Z,4.53
2022-11-15T23:10:40.851Z,4.53
2022-11-15T23:13:18.254Z,3.70
2022-11-15T23:16:05.092Z,4.67
2022-11-15T23:18:35.629Z,4.30
2022-11-15T23:21:09.902Z,3.73
2022-11-15T23:23:38.356Z,3.70
2022-11-15T23:26:06.589Z,4.30
2022-11-15T23:28:35.084Z,4.23
2022-11-15T23:31:21.866Z,4.73
2022-11-15T23:33:58.659Z,4.67
2022-11-15T23:36:27.103Z,4.10
2022-11-15T23:38:56.796Z,4.47
2022-11-15T23:41:25.329Z,4.77
2022-11-15T23:43:53.531Z,4.67
2022-11-15T23:46:21.779Z,4.30
2022-11-15T23:48:49.734Z,4.60
2022-11-15T23:51:17.724Z,4.67
2022-11-15T23:53:45.628Z,4.00
2022-11-15T23:56:15.798Z,4.73
2022-11-15T23:58:44.161Z,4.70
